Aviation Digital Data Service (ADDS)

Output produced by METARs form (2118 UTC 06 December 2019)
found at http://www.aviationweather.gov/metar/data/
 
Forecast for: RJAH (HYAKURI (JASDF) , JP)
Text: TAF RJAH 061706Z 0618/0800 01005KT 9999 FEW010 BKN020
Forecast period: 1800 UTC 06 December 2019 to 0000 UTC 08 December 2019
Forecast type: FROM: standard forecast or significant change
Winds: from the N (10 degrees) at 6 MPH (5 knots; 2.6 m/s)
Visibility: 6 or more miles 10+ km)
Ceiling: 2000 feet AGL
Clouds: few clouds at 1000 feet AGL
broken clouds at 2000 feet AGL
Weather: no significant weather forecast for this period
Text: TEMPO 0703/0709 FEW005 BKN008
Forecast period: 0300 to 0900 UTC 07 December 2019
Forecast type: TEMPORARY: The following changes expected for less than half the time period
Visibility: missing
Ceiling: 800 feet AGL
Clouds: few clouds at 500 feet AGL
broken clouds at 800 feet AGL
Weather: no significant weather forecast for this period